createdAt,value
2023-02-02T00:02:23.475Z,54.5
2023-02-02T00:07:46.338Z,54.5
2023-02-02T00:13:08.988Z,54.4
2023-02-02T00:18:32.138Z,54.4
2023-02-02T00:23:54.629Z,54.3
2023-02-02T00:29:17.676Z,54.3
2023-02-02T00:34:40.456Z,54.2
2023-02-02T00:40:02.402Z,54.2
2023-02-02T00:45:25.029Z,54.1
2023-02-02T00:50:47.365Z,54.1
2023-02-02T00:56:10.000Z,54
2023-02-02T01:01:32.960Z,53.9
2023-02-02T01:06:55.293Z,53.9
2023-02-02T01:12:17.052Z,53.9
2023-02-02T01:17:40.198Z,53.8
2023-02-02T01:23:02.262Z,53.8
2023-02-02T01:28:24.824Z,53.8
2023-02-02T01:33:31.818Z,53.7
2023-02-02T01:38:38.922Z,53.6
2023-02-02T01:44:00.977Z,53.6
2023-02-02T01:49:08.695Z,53.6
2023-02-02T01:54:30.714Z,53.5
2023-02-02T01:59:52.492Z,53.4
2023-02-02T02:04:59.706Z,53.4
2023-02-02T02:10:21.792Z,53.4
2023-02-02T02:15:43.767Z,53.3
2023-02-02T02:21:05.645Z,53.3
2023-02-02T02:26:28.750Z,53.2
2023-02-02T02:31:35.217Z,53.2
2023-02-02T02:36:57.819Z,53.1
2023-02-02T02:42:19.805Z,53.1
2023-02-02T02:47:42.879Z,53.1
2023-02-02T02:52:49.591Z,53
2023-02-02T02:58:12.316Z,52.9
2023-02-02T03:03:35.206Z,52.9
2023-02-02T03:08:57.934Z,52.9
2023-02-02T03:14:05.193Z,52.8
2023-02-02T03:19:27.354Z,52.8
2023-02-02T03:24:34.313Z,52.7
2023-02-02T03:29:42.149Z,52.7
2023-02-02T03:34:49.358Z,52.6
2023-02-02T03:40:12.085Z,52.6
2023-02-02T03:45:04.085Z,52.6
2023-02-02T03:50:26.710Z,52.5
2023-02-02T03:55:49.446Z,52.4
2023-02-02T04:01:12.120Z,52.4
2023-02-02T04:11:10.157Z,52.3
2023-02-02T04:16:32.951Z,52.3
2023-02-02T04:21:55.803Z,52.3
2023-02-02T04:27:19.074Z,52.2
2023-02-02T04:32:41.781Z,52.1
2023-02-02T04:37:48.393Z,52.1
2023-02-02T04:43:10.761Z,52.1
2023-02-02T04:48:34.140Z,52
2023-02-02T05:03:26.384Z,51.9
2023-02-02T05:08:50.805Z,51.8
2023-02-02T05:13:58.377Z,51.8
2023-02-02T05:19:21.328Z,51.8
2023-02-02T05:24:28.163Z,51.7
2023-02-02T05:30:06.632Z,51.7
2023-02-02T05:35:45.242Z,51.6
2023-02-02T05:40:51.859Z,51.6
2023-02-02T05:45:59.789Z,51.5
2023-02-02T05:51:22.298Z,51.4
2023-02-02T05:57:00.444Z,51.4
2023-02-02T06:02:38.758Z,51.4
2023-02-02T06:08:17.890Z,51.3
2023-02-02T06:13:55.016Z,51.2
2023-02-02T06:19:33.621Z,51.1
2023-02-02T06:25:11.789Z,51.1
2023-02-02T06:30:34.880Z,51.1
2023-02-02T06:36:14.887Z,51
2023-02-02T06:41:52.817Z,50.9
2023-02-02T06:47:27.380Z,50.9
2023-02-02T06:53:06.004Z,50.8
2023-02-02T06:58:47.228Z,50.8
2023-02-02T07:04:25.633Z,50.8
2023-02-02T07:11:09.164Z,50.7
2023-02-02T07:16:56.059Z,50.6
2023-02-02T07:22:18.175Z,50.6
2023-02-02T07:27:25.858Z,50.6
2023-02-02T07:32:18.409Z,50.5
2023-02-02T07:37:25.962Z,50.4
2023-02-02T07:42:49.344Z,50.4
2023-02-02T07:48:38.103Z,50.4
2023-02-02T07:54:05.755Z,50.3
2023-02-02T07:59:49.796Z,50.3
2023-02-02T08:05:13.391Z,50.3
2023-02-02T08:10:19.816Z,50.2
2023-02-02T08:15:58.950Z,50.1
2023-02-02T08:21:37.769Z,50.1
2023-02-02T08:27:16.074Z,50.1
2023-02-02T08:32:39.478Z,50
2023-02-02T08:38:18.071Z,49.9
2023-02-02T08:43:59.912Z,49.9
2023-02-02T08:51:19.862Z,49.8
2023-02-02T08:56:58.289Z,49.8
2023-02-02T09:02:36.139Z,49.8
2023-02-02T09:08:15.540Z,49.7
2023-02-02T09:13:56.335Z,49.7
2023-02-02T09:19:34.769Z,49.6
2023-02-02T09:25:13.168Z,49.6
2023-02-02T09:30:52.132Z,49.5
2023-02-02T09:36:16.027Z,49.4
2023-02-02T09:41:57.243Z,49.4
2023-02-02T09:47:34.765Z,49.4
2023-02-02T09:53:12.922Z,49.3
2023-02-02T09:59:10.282Z,49.3
2023-02-02T10:04:56.154Z,49.3
2023-02-02T10:10:44.247Z,49.4
2023-02-02T10:16:23.540Z,49.8
2023-02-02T10:22:04.864Z,50.2
2023-02-02T10:27:28.125Z,50.4
2023-02-02T10:33:18.014Z,50.6
2023-02-02T10:39:11.044Z,50.6
2023-02-02T10:44:48.891Z,50.6
2023-02-02T10:50:29.359Z,50.7
2023-02-02T10:56:19.802Z,50.8
2023-02-02T11:02:06.142Z,50.9
2023-02-02T11:07:51.376Z,51.4
2023-02-02T11:13:31.392Z,51.7
2023-02-02T11:24:48.973Z,52.3
2023-02-02T11:30:27.473Z,52.6
2023-02-02T11:37:47.997Z,52.9
2023-02-02T11:43:26.180Z,52.8
2023-02-02T11:49:04.600Z,52.8
2023-02-02T11:54:50.991Z,53.1
2023-02-02T12:00:30.257Z,53.5
2023-02-02T12:06:12.333Z,53.7
2023-02-02T12:11:50.027Z,53.8
2023-02-02T12:17:15.640Z,53.8
2023-02-02T20:31:28.810Z,50.5
